NCAR-RAP Real-Time Weather Data

Output produced by METARs form (17 September 2019  16:12 UTC)
found at http://weather.rap.ucar.edu/surface/
 
KORH 171554Z VRB06KT 10SM BKN047 18/07 A3014 RMK AO2 SLP208 T01780072
KORH 171454Z 34012G19KT 10SM CLR 17/07 A3015 RMK AO2 SLP208 T01670072 51006
KORH 171354Z 35011G18KT 10SM CLR 16/07 A3014 RMK AO2 SLP208 T01560067
KORH 171254Z 34010KT 10SM CLR 16/08 A3014 RMK AO2 SLP206 T01560078
KORH 171154Z 33009KT 10SM CLR 14/07 A3013 RMK AO2 SLP204 T01390067 10144 20106 51015
KORH 171054Z 32009KT 10SM CLR 13/06 A3012 RMK AO2 SLP199 T01280061
KORH 170954Z 31010KT 10SM CLR 12/06 A3010 RMK AO2 SLP192 T01170061
KORH 170854Z AUTO 32010KT 10SM CLR 12/06 A3008 RMK AO2 SLP187 T01220061 58005
KORH 170754Z AUTO 31009KT 10SM CLR 11/06 A3009 RMK AO2 SLP188 T01110061
KORH 170654Z AUTO 31008KT 10SM CLR 11/06 A3010 RMK AO2 SLP192 T01110061
KORH 170554Z AUTO 33008KT 10SM CLR 14/06 A3010 RMK AO2 SLP191 T01390061 10161 20106 50003
KORH 170454Z 34007KT 10SM CLR 13/06 A3010 RMK AO2 SLP194 T01330061 402060106
KORH 170354Z 36008KT 10SM CLR 14/06 A3009 RMK AO2 SLP191 T01390061
KORH 170254Z 35007KT 10SM CLR 14/06 A3009 RMK AO2 SLP189 T01440056 51009
KORH 170054Z 33006KT 10SM CLR 16/06 A3007 RMK AO2 SLP183 T01560061
KORH 162354Z 32006KT 10SM CLR 15/07 A3006 RMK AO2 SLP179 T01500072 10206 20144 53013
KORH 162254Z 32008KT 10SM CLR 17/08 A3004 RMK AO2 SLP174 T01720078
KORH 162154Z 31007KT 10SM CLR 19/08 A3003 RMK AO2 SLP169 T01890078
KORH 162054Z 32010KT 10SM CLR 20/08 A3002 RMK AO2 SLP164 T02000083 58006
KORH 161954Z 30010G17KT 10SM CLR 20/08 A3002 RMK AO2 SLP166 T02000078
KORH 161854Z 29012KT 10SM CLR 20/08 A3003 RMK AO2 SLP167 T02000083